Time;durP1;ratioP1;P1;durP2;ratioP2;P2;SDS_P1;SDS_P2;PMS_P1;PMS_P2;Temp;Humidity;BMP_temperature;BMP_pressure;BME280_temperature;BME280_humidity;BME280_pressure;Samples;Min_cycle;Max_cycle;Signal;HPM_P1;HPM_P2
2022/02/12 00:01:12;;;;;;;21.95;7.38;;;-0.70;99.90;;;;;;5003496;28;20048;-86
2022/02/12 00:03:38;;;;;;;25.80;7.90;;;-0.70;99.90;;;;;;4984881;28;20077;-85
2022/02/12 00:06:04;;;;;;;21.55;7.22;;;-0.70;99.90;;;;;;4986480;28;20115;-86
2022/02/12 00:08:30;;;;;;;22.88;7.38;;;-0.70;99.90;;;;;;4985224;28;20037;-86
2022/02/12 00:10:56;;;;;;;30.55;8.27;;;-0.70;99.90;;;;;;4983561;28;20069;-86
2022/02/12 00:13:21;;;;;;;26.30;7.78;;;-0.70;99.90;;;;;;4969159;28;20073;-85
2022/02/12 00:15:47;;;;;;;29.63;9.15;;;-0.70;99.90;;;;;;4967793;28;20034;-85
2022/02/12 00:18:15;;;;;;;24.60;8.52;;;-0.70;99.90;;;;;;4968650;28;20573;-85
2022/02/12 00:20:40;;;;;;;27.67;8.30;;;-0.70;99.90;;;;;;4985947;28;20049;-86
2022/02/12 00:23:06;;;;;;;28.45;8.18;;;-0.70;99.90;;;;;;4968879;28;20106;-86
2022/02/12 00:25:32;;;;;;;31.65;9.57;;;-0.70;99.90;;;;;;4987597;28;20408;-85
2022/02/12 00:27:58;;;;;;;27.23;9.48;;;-0.70;99.90;;;;;;4990535;28;20092;-86
2022/02/12 00:30:23;;;;;;;25.95;10.15;;;-0.70;99.90;;;;;;4980050;28;20037;-85
2022/02/12 00:32:49;;;;;;;27.35;11.32;;;-0.70;99.90;;;;;;4969098;28;20037;-85
2022/02/12 00:35:15;;;;;;;25.65;10.00;;;-0.70;99.90;;;;;;4984781;28;20479;-86
2022/02/12 00:37:41;;;;;;;36.30;11.45;;;-0.60;99.90;;;;;;4982035;28;20041;-85
2022/02/12 00:40:07;;;;;;;26.67;11.98;;;-0.60;99.90;;;;;;4985048;28;20041;-85
2022/02/12 00:42:33;;;;;;;33.13;10.82;;;-0.70;99.90;;;;;;4966089;28;20045;-86
2022/02/12 00:45:00;;;;;;;28.33;12.05;;;-0.70;99.90;;;;;;4987764;28;20230;-86
2022/02/12 00:47:28;;;;;;;34.28;10.55;;;-0.70;99.90;;;;;;4965961;28;20030;-85
2022/02/12 00:49:54;;;;;;;24.30;8.90;;;-0.70;99.90;;;;;;4987996;28;20036;-86
2022/02/12 00:52:19;;;;;;;26.95;8.65;;;-0.70;99.90;;;;;;4982785;28;20038;-85
2022/02/12 00:54:45;;;;;;;28.60;9.40;;;-0.80;99.90;;;;;;4970628;28;20217;-85
2022/02/12 00:57:11;;;;;;;28.45;9.18;;;-0.80;99.90;;;;;;4966616;28;20037;-85
2022/02/12 00:59:37;;;;;;;31.20;9.38;;;-0.80;99.90;;;;;;4974138;28;20155;-85
2022/02/12 01:02:03;;;;;;;35.95;8.82;;;-0.90;99.90;;;;;;5002037;28;21211;-85
2022/02/12 01:04:29;;;;;;;24.40;8.65;;;-0.90;99.90;;;;;;4983145;28;20556;-86
2022/02/12 01:06:55;;;;;;;30.00;9.63;;;-0.90;99.90;;;;;;5003213;28;20156;-86
2022/02/12 01:09:21;;;;;;;37.88;10.13;;;-1.00;99.90;;;;;;4965331;28;20030;-86
2022/02/12 01:11:47;;;;;;;27.35;8.95;;;-1.00;99.90;;;;;;4969801;28;20075;-85
2022/02/12 01:14:12;;;;;;;29.85;9.90;;;-1.10;99.90;;;;;;5001333;28;20045;-85
2022/02/12 01:16:39;;;;;;;30.10;9.35;;;-1.00;99.90;;;;;;4967067;28;20124;-85
2022/02/12 01:19:05;;;;;;;32.60;9.15;;;-1.00;99.90;;;;;;4986416;28;20124;-85
2022/02/12 01:21:31;;;;;;;27.30;9.13;;;-1.00;99.90;;;;;;4970611;28;20171;-86
2022/02/12 01:23:56;;;;;;;27.38;10.07;;;-1.00;99.90;;;;;;4972513;28;20144;-84
2022/02/12 01:26:22;;;;;;;25.08;9.70;;;-0.90;99.90;;;;;;4992195;28;20036;-85
2022/02/12 01:28:49;;;;;;;29.23;9.50;;;-1.00;99.90;;;;;;4989697;28;20079;-85
2022/02/12 01:31:15;;;;;;;31.00;9.43;;;-1.00;99.90;;;;;;4991347;28;20033;-85
2022/02/12 01:33:41;;;;;;;26.80;9.20;;;-1.00;99.90;;;;;;4982234;28;20045;-85
2022/02/12 01:36:07;;;;;;;29.15;8.63;;;-1.00;99.90;;;;;;4987553;28;20048;-86
2022/02/12 01:38:32;;;;;;;27.10;9.40;;;-1.00;99.90;;;;;;4982276;28;20041;-85
2022/02/12 01:40:58;;;;;;;21.80;8.77;;;-1.00;99.90;;;;;;4970143;28;20511;-85
2022/02/12 01:43:24;;;;;;;23.88;9.65;;;-1.00;99.90;;;;;;4985784;28;20037;-88
2022/02/12 01:45:50;;;;;;;20.08;8.68;;;-1.00;99.90;;;;;;4966406;28;20674;-86
2022/02/12 01:48:16;;;;;;;27.95;9.75;;;-1.00;99.90;;;;;;4987911;28;20033;-86
2022/02/12 01:50:45;;;;;;;29.20;9.73;;;-1.00;99.90;;;;;;4987266;28;20048;-88
2022/02/12 01:53:10;;;;;;;33.00;9.65;;;-1.00;99.90;;;;;;5009699;28;20545;-88
2022/02/12 01:55:36;;;;;;;31.20;10.07;;;-0.90;99.90;;;;;;4975008;28;20136;-88
2022/02/12 01:58:06;;;;;;;28.17;10.57;;;-0.90;99.90;;;;;;4976460;28;20052;-88
2022/02/12 02:00:32;;;;;;;31.60;11.48;;;-1.00;99.90;;;;;;5008241;28;20037;-86
2022/02/12 02:02:58;;;;;;;34.13;11.13;;;-1.00;99.90;;;;;;5018029;28;20038;-86
2022/02/12 02:05:24;;;;;;;30.63;9.60;;;-1.00;99.90;;;;;;4990175;28;20496;-86
2022/02/12 02:07:49;;;;;;;34.58;9.05;;;-1.00;99.90;;;;;;4980660;28;20042;-86
2022/02/12 02:10:15;;;;;;;25.90;9.00;;;-1.00;99.90;;;;;;4973084;28;20309;-86
2022/02/12 02:12:41;;;;;;;30.48;9.65;;;-1.00;99.90;;;;;;4976797;28;21092;-86
2022/02/12 02:15:09;;;;;;;30.70;8.95;;;-1.00;99.90;;;;;;4983733;28;20041;-86
2022/02/12 02:17:34;;;;;;;29.55;9.27;;;-1.00;99.90;;;;;;4972318;28;20038;-86
2022/02/12 02:20:04;;;;;;;39.72;10.05;;;-1.00;99.90;;;;;;4966097;28;20175;-86
2022/02/12 02:22:40;;;;;;;29.23;8.68;;;-1.00;99.90;;;;;;5007006;28;20037;-86
2022/02/12 02:25:06;;;;;;;24.95;9.57;;;-1.00;99.90;;;;;;4988307;28;20037;-88
2022/02/12 02:27:32;;;;;;;27.13;9.00;;;-1.00;99.90;;;;;;4982535;28;20045;-85
2022/02/12 02:29:57;;;;;;;27.40;10.27;;;-1.00;99.90;;;;;;4971190;28;20044;-87
2022/02/12 02:32:23;;;;;;;25.40;8.65;;;-0.90;99.90;;;;;;4971420;28;20037;-86
2022/02/12 02:34:52;;;;;;;27.38;8.80;;;-1.00;99.90;;;;;;4987164;28;20083;-86
2022/02/12 02:37:21;;;;;;;34.08;9.07;;;-0.90;99.90;;;;;;4992654;28;20087;-87
2022/02/12 02:39:47;;;;;;;31.60;9.02;;;-0.90;99.90;;;;;;4986327;28;20088;-87
2022/02/12 02:42:13;;;;;;;26.40;8.35;;;-0.80;99.90;;;;;;5006228;28;20521;-86
2022/02/12 02:44:39;;;;;;;32.22;9.70;;;-0.90;99.90;;;;;;5014987;28;20098;-86
2022/02/12 02:49:50;;;;;;;19.65;8.48;;;-0.80;99.90;;;;;;4999202;28;20101;-86
2022/02/12 02:55:59;;;;;;;23.88;7.82;;;-0.80;99.90;;;;;;4975041;28;20689;-86
2022/02/12 02:57:51;;;;;;;23.83;7.72;;;-0.80;99.90;;;;;;5001058;28;20713;-86
2022/02/12 03:00:18;;;;;;;26.77;8.55;;;-0.80;99.90;;;;;;4981833;28;20230;-87
2022/02/12 03:02:46;;;;;;;21.17;8.10;;;-0.90;99.90;;;;;;4985819;28;20044;-86
2022/02/12 03:05:11;;;;;;;27.23;8.73;;;-0.90;99.90;;;;;;4987518;28;20552;-87
2022/02/12 03:07:38;;;;;;;25.25;8.13;;;-0.80;99.90;;;;;;4967947;28;20277;-86
2022/02/12 03:10:05;;;;;;;21.33;7.53;;;-0.80;99.90;;;;;;4968487;28;20037;-86
2022/02/12 03:12:32;;;;;;;20.33;8.77;;;-0.80;99.90;;;;;;4985280;28;20048;-86
2022/02/12 03:14:58;;;;;;;22.65;8.35;;;-0.80;99.90;;;;;;5005738;28;20038;-86
2022/02/12 03:17:24;;;;;;;27.40;8.07;;;-0.80;99.90;;;;;;4989833;28;20045;-87
2022/02/12 03:19:49;;;;;;;23.27;7.65;;;-0.80;99.90;;;;;;4973784;28;20041;-86
2022/02/12 03:22:15;;;;;;;28.58;8.02;;;-0.70;99.90;;;;;;4969601;28;20034;-87
2022/02/12 03:24:41;;;;;;;21.05;7.50;;;-0.70;99.90;;;;;;4967911;28;20044;-86
2022/02/12 03:27:07;;;;;;;29.88;8.35;;;-0.80;99.90;;;;;;4969877;28;20485;-87
2022/02/12 03:29:33;;;;;;;26.60;8.30;;;-0.80;99.90;;;;;;5003348;28;20053;-86
2022/02/12 03:31:58;;;;;;;28.83;7.97;;;-0.80;99.90;;;;;;4983686;28;20303;-87
2022/02/12 03:34:24;;;;;;;22.10;7.80;;;-0.80;99.90;;;;;;4968960;28;20057;-87
2022/02/12 03:36:50;;;;;;;25.17;7.93;;;-0.80;99.90;;;;;;4974844;28;20480;-88
2022/02/12 03:39:16;;;;;;;26.58;7.25;;;-0.80;99.90;;;;;;4984258;28;20037;-87
2022/02/12 03:41:41;;;;;;;32.15;8.95;;;-0.80;99.90;;;;;;4970694;28;20064;-87
2022/02/12 03:44:07;;;;;;;25.23;8.30;;;-0.80;99.90;;;;;;4968489;28;20029;-86
2022/02/12 03:46:35;;;;;;;27.75;7.68;;;-0.70;99.90;;;;;;5001548;28;20041;-86
2022/02/12 03:49:00;;;;;;;30.98;6.95;;;-0.70;99.90;;;;;;4989393;28;20034;-88
2022/02/12 03:51:26;;;;;;;19.10;6.10;;;-0.80;99.90;;;;;;4987316;28;20625;-88
2022/02/12 03:53:52;;;;;;;23.25;7.07;;;-0.70;99.90;;;;;;4987557;28;20041;-88
2022/02/12 03:56:17;;;;;;;24.52;7.53;;;-0.70;99.90;;;;;;5003833;28;20488;-88
2022/02/12 03:58:47;;;;;;;18.08;6.40;;;-0.70;99.90;;;;;;5021252;28;20080;-89
2022/02/12 04:01:13;;;;;;;25.60;6.78;;;-0.70;99.90;;;;;;4982321;28;20174;-88
2022/02/12 04:03:39;;;;;;;25.17;6.70;;;-0.60;99.90;;;;;;4985928;28;20041;-89
2022/02/12 04:06:05;;;;;;;25.55;6.85;;;-0.70;99.90;;;;;;4987856;28;20065;-89
2022/02/12 04:08:30;;;;;;;22.83;7.43;;;-0.70;99.90;;;;;;4970600;28;20049;-87
2022/02/12 04:10:56;;;;;;;22.52;7.38;;;-0.60;99.90;;;;;;4972453;28;20037;-89
2022/02/12 04:13:23;;;;;;;19.25;7.38;;;-0.60;99.90;;;;;;5004892;28;20128;-89
2022/02/12 04:15:48;;;;;;;23.48;8.05;;;-0.50;99.90;;;;;;4987914;28;20029;-89
2022/02/12 04:18:15;;;;;;;24.45;7.95;;;-0.60;99.90;;;;;;4970813;28;20502;-88
2022/02/12 04:20:41;;;;;;;19.52;7.40;;;-0.60;99.90;;;;;;4986589;28;20124;-87
2022/02/12 04:23:08;;;;;;;27.40;7.10;;;-0.60;99.90;;;;;;4992047;28;20131;-87
2022/02/12 04:25:34;;;;;;;21.58;7.32;;;-0.60;99.90;;;;;;4974003;28;20069;-88
2022/02/12 04:28:07;;;;;;;27.65;7.97;;;-0.70;99.90;;;;;;4985603;28;20107;-88
2022/02/12 04:30:36;;;;;;;25.10;8.18;;;-0.70;99.90;;;;;;4999373;28;20034;-88
2022/02/12 04:33:03;;;;;;;28.90;7.88;;;-0.70;99.90;;;;;;4977443;28;20393;-88
2022/02/12 04:35:29;;;;;;;23.10;8.13;;;-0.70;99.90;;;;;;4967975;28;20117;-88
2022/02/12 04:37:54;;;;;;;28.85;8.82;;;-0.70;99.90;;;;;;4987074;28;20116;-87
2022/02/12 04:40:20;;;;;;;22.17;8.38;;;-0.80;99.90;;;;;;4987761;28;20149;-88
2022/02/12 04:42:46;;;;;;;27.58;8.90;;;-0.70;99.90;;;;;;4984108;28;20037;-89
2022/02/12 04:45:12;;;;;;;21.17;7.68;;;-0.70;99.90;;;;;;4974540;28;20121;-88
2022/02/12 04:47:40;;;;;;;33.05;8.63;;;-0.70;99.90;;;;;;5001896;28;20072;-89
2022/02/12 04:50:07;;;;;;;27.42;8.13;;;-0.70;99.90;;;;;;4976510;28;20036;-89
2022/02/12 04:52:33;;;;;;;32.15;8.73;;;-0.70;99.90;;;;;;4988398;28;20045;-88
2022/02/12 04:54:59;;;;;;;25.40;8.82;;;-0.70;99.90;;;;;;4993709;28;20037;-89
2022/02/12 04:57:24;;;;;;;32.47;9.95;;;-0.70;99.90;;;;;;4976245;28;20037;-89
2022/02/12 04:59:50;;;;;;;25.38;8.98;;;-0.70;99.90;;;;;;4995016;28;20393;-89
2022/02/12 05:02:16;;;;;;;24.05;9.55;;;-0.70;99.90;;;;;;4979880;28;20373;-89
2022/02/12 05:04:42;;;;;;;26.30;8.98;;;-0.70;99.90;;;;;;4976190;28;20041;-89
2022/02/12 05:07:09;;;;;;;30.00;10.05;;;-0.70;99.90;;;;;;4988866;28;20045;-89
2022/02/12 05:09:37;;;;;;;31.63;9.57;;;-0.70;99.90;;;;;;4992838;28;20492;-88
2022/02/12 05:12:05;;;;;;;30.85;9.68;;;-0.70;99.90;;;;;;4989737;28;20050;-87
2022/02/12 05:14:31;;;;;;;26.13;9.90;;;-0.70;99.90;;;;;;4995657;28;20091;-88
2022/02/12 05:16:58;;;;;;;26.58;10.15;;;-0.80;99.90;;;;;;4988991;28;20443;-88
2022/02/12 05:19:24;;;;;;;26.17;9.00;;;-0.80;99.90;;;;;;5005571;28;20065;-89
2022/02/12 05:21:50;;;;;;;28.73;9.65;;;-0.80;99.90;;;;;;4974181;28;20073;-88
2022/02/12 05:24:15;;;;;;;26.85;10.65;;;-0.80;99.90;;;;;;4972602;28;20025;-88
2022/02/12 05:26:41;;;;;;;29.23;10.38;;;-0.70;99.90;;;;;;4985275;28;20450;-88
2022/02/12 05:29:07;;;;;;;25.42;9.57;;;-0.90;99.90;;;;;;4968854;28;20488;-88
2022/02/12 05:31:33;;;;;;;36.00;11.45;;;-0.80;99.90;;;;;;4967463;28;20040;-88
2022/02/12 05:33:58;;;;;;;25.85;8.98;;;-0.80;99.90;;;;;;4971363;28;20060;-87
2022/02/12 05:36:24;;;;;;;29.13;10.85;;;-0.90;99.90;;;;;;4989822;28;20041;-87
2022/02/12 05:38:50;;;;;;;37.60;12.07;;;-0.90;99.90;;;;;;4993308;28;20132;-88
2022/02/12 05:41:16;;;;;;;37.53;12.50;;;-0.90;99.90;;;;;;5003360;28;20096;-87
2022/02/12 05:43:42;;;;;;;32.85;13.13;;;-0.90;99.90;;;;;;4986854;28;20462;-87
2022/02/12 05:46:08;;;;;;;33.80;12.73;;;-0.90;99.90;;;;;;4987326;28;20034;-88
2022/02/12 05:48:34;;;;;;;37.28;13.82;;;-0.90;99.90;;;;;;5002438;28;20132;-88
2022/02/12 05:51:01;;;;;;;34.95;12.65;;;-0.80;99.90;;;;;;4971794;28;20111;-88
2022/02/12 05:53:27;;;;;;;30.60;13.10;;;-0.80;99.90;;;;;;5007604;28;20038;-87
2022/02/12 05:55:53;;;;;;;40.70;15.13;;;-0.80;99.90;;;;;;4989892;28;20154;-88
2022/02/12 05:58:19;;;;;;;37.40;15.32;;;-0.80;99.90;;;;;;4986958;28;20128;-87
2022/02/12 06:00:45;;;;;;;34.40;14.25;;;-0.80;99.90;;;;;;4990625;28;20045;-88
2022/02/12 06:03:11;;;;;;;33.70;14.70;;;-0.80;99.90;;;;;;4988585;28;20041;-88
2022/02/12 06:05:37;;;;;;;39.80;15.73;;;-0.80;99.90;;;;;;4984568;28;20043;-87
2022/02/12 06:08:05;;;;;;;32.67;13.57;;;-0.80;99.90;;;;;;4966866;28;20045;-88
2022/02/12 06:10:34;;;;;;;34.58;14.18;;;-0.80;99.90;;;;;;4984087;28;20388;-88
2022/02/12 06:13:00;;;;;;;45.20;15.63;;;-0.80;99.90;;;;;;5008811;28;20038;-87
2022/02/12 06:15:26;;;;;;;33.25;15.07;;;-0.70;99.90;;;;;;4987340;28;20048;-87
2022/02/12 06:17:52;;;;;;;34.30;13.50;;;-0.70;99.90;;;;;;4983003;28;20068;-87
2022/02/12 06:20:18;;;;;;;35.25;13.73;;;-0.70;99.90;;;;;;4982914;28;20464;-87
2022/02/12 06:22:44;;;;;;;29.83;14.18;;;-0.70;99.90;;;;;;4984518;28;20045;-87
2022/02/12 06:25:10;;;;;;;34.38;13.77;;;-0.70;99.90;;;;;;4982156;28;20496;-86
2022/02/12 06:27:36;;;;;;;43.70;14.70;;;-0.60;99.90;;;;;;4985800;28;20055;-88
2022/02/12 06:30:04;;;;;;;27.23;14.95;;;-0.70;99.90;;;;;;4967903;28;20048;-85
2022/02/12 06:32:30;;;;;;;37.40;16.45;;;-0.70;99.90;;;;;;4999473;28;20088;-86
2022/02/12 06:34:59;;;;;;;35.55;14.88;;;-0.70;99.90;;;;;;4987295;28;20044;-87
2022/02/12 06:37:25;;;;;;;32.72;14.00;;;-0.60;99.90;;;;;;4979855;28;20041;-87
2022/02/12 06:39:51;;;;;;;43.33;15.05;;;-0.60;99.90;;;;;;4966935;28;20106;-86
2022/02/12 06:42:17;;;;;;;37.65;15.15;;;-0.60;99.90;;;;;;4982878;28;22128;-85
2022/02/12 06:44:43;;;;;;;28.25;13.55;;;-0.60;99.90;;;;;;4996353;28;20341;-87
2022/02/12 06:47:09;;;;;;;33.15;13.73;;;-0.40;99.90;;;;;;4985412;28;20045;-87
2022/02/12 06:49:35;;;;;;;32.30;14.50;;;-0.50;99.90;;;;;;4986320;28;20034;-88
2022/02/12 06:52:05;;;;;;;29.75;14.70;;;-0.50;99.90;;;;;;4983871;28;20037;-87
2022/02/12 06:54:31;;;;;;;34.17;16.45;;;-0.50;99.90;;;;;;4983150;28;21034;-87
2022/02/12 06:56:57;;;;;;;38.88;15.20;;;-0.50;99.90;;;;;;4984334;28;20131;-87
2022/02/12 06:59:23;;;;;;;37.83;15.20;;;-0.50;99.90;;;;;;4980843;28;20619;-88
2022/02/12 07:01:49;;;;;;;36.50;16.10;;;-0.50;99.90;;;;;;4982446;28;20112;-87
2022/02/12 07:04:15;;;;;;;30.17;15.20;;;-0.50;99.90;;;;;;4983400;28;20171;-87
2022/02/12 07:06:42;;;;;;;32.20;14.82;;;-0.60;99.90;;;;;;4996361;28;20045;-87
2022/02/12 07:09:11;;;;;;;32.30;15.45;;;-0.40;99.90;;;;;;4983376;28;20037;-87
2022/02/12 07:11:38;;;;;;;29.13;16.13;;;-0.50;99.90;;;;;;4984739;28;20076;-87
2022/02/12 07:14:04;;;;;;;38.15;15.52;;;-0.50;99.90;;;;;;4979906;28;20126;-87
2022/02/12 07:16:30;;;;;;;35.95;14.93;;;-0.50;99.90;;;;;;4982115;28;20033;-87
2022/02/12 07:18:56;;;;;;;29.00;13.93;;;-0.40;99.90;;;;;;4967125;28;20059;-88
2022/02/12 07:21:22;;;;;;;29.83;14.95;;;-0.50;99.90;;;;;;4985234;28;20037;-87
2022/02/12 07:23:49;;;;;;;36.00;13.43;;;-0.40;99.90;;;;;;4984423;28;20048;-88
2022/02/12 07:26:15;;;;;;;40.80;15.10;;;-0.30;99.90;;;;;;4969026;28;20040;-88
2022/02/12 07:28:42;;;;;;;37.05;14.43;;;-0.40;99.90;;;;;;4996490;28;20041;-88
2022/02/12 07:31:09;;;;;;;28.02;13.88;;;-0.40;99.90;;;;;;4969301;28;20080;-88
2022/02/12 07:33:35;;;;;;;29.88;12.63;;;-0.40;99.90;;;;;;4986022;28;20468;-87
2022/02/12 07:36:01;;;;;;;33.47;15.02;;;-0.30;99.90;;;;;;4980801;28;20076;-86
2022/02/12 07:38:27;;;;;;;27.20;13.65;;;-0.20;99.90;;;;;;4982152;28;20711;-86
2022/02/12 07:40:52;;;;;;;27.05;13.30;;;-0.30;99.90;;;;;;4967187;28;20408;-86
2022/02/12 07:43:18;;;;;;;31.67;14.00;;;-0.30;99.90;;;;;;4966268;28;20464;-86
2022/02/12 07:45:44;;;;;;;42.35;15.40;;;-0.20;99.90;;;;;;4963567;28;20547;-88
2022/02/12 07:48:10;;;;;;;34.40;13.88;;;-0.30;99.90;;;;;;4967041;28;20038;-87
2022/02/12 07:50:36;;;;;;;32.70;14.25;;;-0.20;99.90;;;;;;4982492;28;20068;-87
2022/02/12 07:53:02;;;;;;;32.22;13.88;;;-0.20;99.90;;;;;;4966260;28;20404;-87
2022/02/12 07:55:30;;;;;;;37.30;15.20;;;-0.10;99.90;;;;;;4983288;28;20073;-87
2022/02/12 07:57:56;;;;;;;35.38;14.32;;;-0.10;99.90;;;;;;4983194;28;20146;-90
2022/02/12 08:00:22;;;;;;;33.97;13.68;;;-0.10;99.90;;;;;;4982074;28;20069;-87
2022/02/12 08:02:49;;;;;;;35.50;14.95;;;0.00;99.90;;;;;;4965146;28;20515;-88
2022/02/12 08:05:15;;;;;;;32.95;14.10;;;0.10;99.90;;;;;;4979576;28;20134;-88
2022/02/12 08:07:41;;;;;;;30.08;13.95;;;0.10;99.90;;;;;;4982672;28;20049;-88
2022/02/12 08:12:57;;;;;;;34.22;11.93;;;0.20;99.90;;;;;;4997241;28;20041;-85
2022/02/12 08:15:23;;;;;;;28.58;11.85;;;0.30;99.90;;;;;;4982327;28;20045;-88
2022/02/12 08:17:49;;;;;;;22.58;11.10;;;0.30;99.90;;;;;;4978501;28;20034;-88
2022/02/12 08:20:15;;;;;;;33.33;12.07;;;0.40;99.90;;;;;;4965032;28;20056;-85
2022/02/12 08:22:42;;;;;;;28.52;11.90;;;0.40;99.90;;;;;;4981426;28;20041;-85
2022/02/12 08:25:09;;;;;;;22.83;9.35;;;0.50;99.90;;;;;;4983880;28;20034;-86
2022/02/12 08:27:35;;;;;;;25.02;9.13;;;0.60;99.90;;;;;;4968969;28;20045;-89
2022/02/12 08:30:03;;;;;;;24.95;9.55;;;0.60;99.90;;;;;;4980620;28;20403;-86
2022/02/12 08:32:29;;;;;;;30.77;10.30;;;0.70;99.90;;;;;;4987544;28;20080;-87
2022/02/12 08:34:55;;;;;;;18.33;8.77;;;0.80;99.90;;;;;;4971523;28;20037;-87
2022/02/12 08:37:22;;;;;;;31.25;9.88;;;0.80;99.90;;;;;;4967711;28;21625;-88
2022/02/12 08:39:49;;;;;;;25.35;8.93;;;0.90;99.90;;;;;;4970201;28;20056;-86
2022/02/12 08:42:16;;;;;;;28.77;9.32;;;0.90;99.90;;;;;;4965241;28;20040;-88
2022/02/12 08:44:41;;;;;;;21.05;8.65;;;1.00;99.90;;;;;;5000567;28;20592;-87
2022/02/12 08:47:11;;;;;;;30.60;9.20;;;1.00;99.90;;;;;;4986398;28;20124;-86
2022/02/12 08:49:38;;;;;;;21.00;8.23;;;1.10;99.90;;;;;;5004222;28;20049;-86
2022/02/12 08:52:04;;;;;;;21.58;8.43;;;1.20;99.90;;;;;;4997029;28;20112;-85
2022/02/12 08:54:30;;;;;;;22.02;7.95;;;1.20;99.90;;;;;;4987498;28;20464;-88
2022/02/12 08:56:56;;;;;;;22.45;8.10;;;1.30;99.90;;;;;;4969367;28;20132;-87
2022/02/12 08:59:22;;;;;;;29.92;8.15;;;1.40;99.90;;;;;;4968804;28;20626;-87
2022/02/12 09:01:49;;;;;;;17.50;7.85;;;1.40;99.90;;;;;;4966088;28;20049;-88
2022/02/12 09:04:14;;;;;;;21.00;7.28;;;1.50;99.90;;;;;;5002068;28;20034;-85
2022/02/12 09:06:40;;;;;;;19.70;7.75;;;1.50;99.90;;;;;;4991013;28;20047;-85
2022/02/12 09:09:08;;;;;;;23.98;7.82;;;1.60;99.90;;;;;;4970694;28;20109;-85
2022/02/12 09:11:40;;;;;;;25.95;8.13;;;1.70;99.90;;;;;;4990051;28;20042;-87
2022/02/12 09:14:07;;;;;;;30.15;8.48;;;1.70;99.90;;;;;;4986422;28;20132;-87
2022/02/12 09:16:34;;;;;;;20.40;6.93;;;1.80;99.90;;;;;;4972753;28;20045;-88
2022/02/12 09:19:00;;;;;;;23.20;6.50;;;1.80;99.90;;;;;;4971074;28;20037;-86
2022/02/12 09:21:26;;;;;;;22.85;7.47;;;1.90;99.90;;;;;;4970365;28;20052;-88
2022/02/12 09:23:52;;;;;;;16.77;6.57;;;1.90;99.90;;;;;;4985904;28;20897;-86
2022/02/12 09:26:27;;;;;;;19.58;6.50;;;2.00;99.90;;;;;;4986763;28;20560;-87
2022/02/12 09:28:53;;;;;;;17.55;6.45;;;2.10;99.90;;;;;;5003246;28;20049;-86
2022/02/12 09:31:19;;;;;;;23.35;7.00;;;2.10;99.90;;;;;;4986308;28;20035;-86
2022/02/12 09:33:45;;;;;;;28.45;6.47;;;2.10;99.90;;;;;;4971425;28;20496;-87
2022/02/12 09:36:14;;;;;;;19.40;6.30;;;2.20;99.90;;;;;;5042446;23;20109;-85
2022/02/12 09:38:39;;;;;;;17.42;5.18;;;2.30;99.90;;;;;;5043571;28;20049;-86
2022/02/12 09:41:06;;;;;;;14.00;5.28;;;2.40;99.90;;;;;;5036622;28;20047;-87
2022/02/12 09:43:32;;;;;;;23.80;6.53;;;2.50;99.90;;;;;;5033193;28;20048;-85
2022/02/12 09:46:03;;;;;;;22.48;5.22;;;2.60;99.90;;;;;;5046495;28;20124;-86
2022/02/12 09:48:32;;;;;;;17.90;4.83;;;2.60;99.90;;;;;;5058257;28;20048;-86
2022/02/12 09:51:02;;;;;;;22.80;5.55;;;2.70;99.90;;;;;;5061472;28;20305;-88
2022/02/12 09:53:29;;;;;;;22.33;6.82;;;2.80;99.90;;;;;;5063958;28;20041;-87
2022/02/12 09:55:59;;;;;;;19.50;6.07;;;2.80;99.90;;;;;;5056930;28;20097;-88
2022/02/12 09:58:25;;;;;;;13.15;4.65;;;2.90;99.90;;;;;;5057171;28;20051;-88
2022/02/12 10:00:51;;;;;;;23.15;5.70;;;2.90;99.90;;;;;;5051262;28;20085;-87
2022/02/12 10:03:17;;;;;;;16.92;5.57;;;2.90;99.90;;;;;;5063503;28;20097;-86
2022/02/12 10:05:53;;;;;;;24.08;5.93;;;3.00;99.90;;;;;;5029377;28;20052;-87
2022/02/12 10:08:21;;;;;;;14.13;4.82;;;3.10;99.90;;;;;;5061083;28;20778;-86
2022/02/12 10:10:50;;;;;;;22.75;6.18;;;3.10;99.90;;;;;;5046948;28;20147;-86
2022/02/12 10:13:30;;;;;;;17.58;5.68;;;3.20;99.90;;;;;;5061716;28;20116;-86
2022/02/12 10:16:01;;;;;;;19.13;6.15;;;3.20;99.90;;;;;;5057173;28;20036;-85
2022/02/12 10:18:30;;;;;;;23.38;5.65;;;3.30;99.90;;;;;;5042767;28;20394;-85
2022/02/12 10:20:57;;;;;;;22.08;6.07;;;3.30;99.90;;;;;;5060752;28;20393;-85
2022/02/12 10:23:28;;;;;;;17.13;5.97;;;3.40;99.90;;;;;;5058288;28;20401;-86
2022/02/12 10:26:03;;;;;;;19.98;5.18;;;3.50;99.90;;;;;;5056844;28;20040;-86
2022/02/12 10:28:30;;;;;;;20.58;5.43;;;3.50;99.90;;;;;;5058499;28;20031;-86
2022/02/12 10:30:57;;;;;;;21.42;6.05;;;3.60;99.90;;;;;;5040178;28;20036;-85
2022/02/12 10:33:25;;;;;;;20.08;4.65;;;3.70;99.90;;;;;;5022467;28;20458;-85
2022/02/12 10:35:56;;;;;;;25.65;6.32;;;3.70;99.90;;;;;;5062261;28;20131;-85
2022/02/12 10:38:25;;;;;;;21.67;5.43;;;3.80;99.90;;;;;;5055555;28;20060;-86
2022/02/12 10:41:26;;;;;;;12.55;5.22;;;3.90;99.90;;;;;;5060612;28;20501;-86
2022/02/12 10:43:55;;;;;;;18.55;4.72;;;3.90;99.90;;;;;;5025536;28;20113;-87
2022/02/12 10:46:22;;;;;;;18.90;5.50;;;4.00;99.90;;;;;;5062316;28;20317;-86
2022/02/12 10:48:50;;;;;;;25.77;5.63;;;4.00;99.90;;;;;;5073414;28;20182;-86
2022/02/12 10:51:17;;;;;;;16.27;5.50;;;4.10;99.90;;;;;;5069739;28;20114;-87
2022/02/12 10:54:17;;;;;;;18.50;6.10;;;4.10;99.90;;;;;;5030483;28;20436;-87
2022/02/12 10:56:51;;;;;;;15.75;4.50;;;4.20;99.90;;;;;;5068848;28;20068;-86
2022/02/12 10:59:23;;;;;;;19.05;4.80;;;4.30;99.90;;;;;;5057503;28;20039;-88
2022/02/12 11:01:50;;;;;;;15.95;4.78;;;4.30;99.90;;;;;;5056487;28;21283;-86
2022/02/12 11:04:20;;;;;;;22.10;4.93;;;4.40;99.90;;;;;;5061016;28;20029;-87
2022/02/12 11:06:47;;;;;;;18.25;5.03;;;4.50;99.90;;;;;;5054013;28;20433;-86
2022/02/12 11:09:15;;;;;;;22.02;5.47;;;4.60;99.90;;;;;;5044725;28;20490;-86
2022/02/12 11:11:41;;;;;;;15.93;4.90;;;4.60;99.90;;;;;;5056467;28;20558;-86
2022/02/12 11:14:08;;;;;;;18.85;5.25;;;4.70;99.90;;;;;;5062490;28;20495;-86
2022/02/12 11:16:36;;;;;;;18.20;4.85;;;4.70;99.90;;;;;;5062131;28;20438;-86
2022/02/12 11:19:05;;;;;;;20.55;5.68;;;4.80;99.90;;;;;;5078776;28;20365;-87
2022/02/12 11:21:38;;;;;;;16.02;5.10;;;4.80;99.90;;;;;;5041344;28;20234;-86
2022/02/12 11:24:08;;;;;;;20.65;5.78;;;4.80;99.90;;;;;;5045981;28;20529;-86
2022/02/12 11:26:45;;;;;;;15.02;5.43;;;4.90;99.90;;;;;;5063080;28;20040;-86
2022/02/12 11:29:31;;;;;;;18.70;4.70;;;5.00;99.90;;;;;;5045312;28;20036;-87
2022/02/12 11:32:10;;;;;;;14.38;5.05;;;5.10;99.90;;;;;;5060284;28;20076;-86
2022/02/12 11:35:06;;;;;;;15.05;4.97;;;5.10;99.90;;;;;;5063832;28;20047;-88
2022/02/12 11:37:41;;;;;;;16.10;4.72;;;5.10;99.90;;;;;;5053541;28;20043;-87
2022/02/12 11:40:13;;;;;;;14.52;4.95;;;5.20;99.90;;;;;;5053852;28;20040;-87
2022/02/12 11:42:45;;;;;;;16.52;4.57;;;5.30;99.90;;;;;;5062623;28;20123;-86
2022/02/12 11:45:29;;;;;;;19.10;6.13;;;5.30;99.90;;;;;;5061089;28;20028;-85
2022/02/12 11:48:12;;;;;;;16.65;5.15;;;5.40;99.90;;;;;;5056939;28;20032;-88
2022/02/12 11:50:45;;;;;;;18.35;4.68;;;5.40;99.90;;;;;;5067089;28;20129;-87
2022/02/12 11:53:43;;;;;;;16.50;4.68;;;5.50;99.90;;;;;;5061255;28;20042;-87
2022/02/12 11:56:19;;;;;;;16.00;4.95;;;5.50;99.90;;;;;;5056790;28;20033;-86
2022/02/12 11:58:45;;;;;;;17.40;5.00;;;5.60;99.90;;;;;;5055130;28;20032;-85
2022/02/12 12:01:24;;;;;;;20.35;5.40;;;5.80;99.90;;;;;;5066001;28;20043;-87
2022/02/12 12:04:11;;;;;;;12.75;4.20;;;5.90;99.90;;;;;;5059682;28;20155;-88
2022/02/12 12:06:39;;;;;;;17.77;4.68;;;6.00;99.90;;;;;;5056248;28;20063;-86
2022/02/12 12:09:13;;;;;;;12.63;3.90;;;6.00;99.90;;;;;;5063868;28;20052;-86
2022/02/12 12:11:41;;;;;;;13.32;4.15;;;6.10;99.90;;;;;;5036396;28;20213;-86
2022/02/12 12:14:22;;;;;;;15.00;4.63;;;6.20;99.90;;;;;;5062056;28;20638;-86
2022/02/12 12:17:02;;;;;;;11.88;4.20;;;6.20;99.90;;;;;;5055727;28;20041;-86
2022/02/12 12:19:36;;;;;;;20.05;4.40;;;6.30;99.90;;;;;;5065410;28;20039;-85
2022/02/12 12:22:07;;;;;;;16.13;4.50;;;6.40;99.90;;;;;;5057200;28;20036;-86
2022/02/12 12:24:34;;;;;;;11.85;4.13;;;6.50;99.90;;;;;;5059490;28;20506;-85
2022/02/12 12:27:00;;;;;;;14.48;3.92;;;6.50;99.90;;;;;;5043460;28;20040;-88
2022/02/12 12:32:16;;;;;;;13.70;4.20;;;6.50;99.90;;;;;;5074544;28;20036;-86
2022/02/12 12:34:55;;;;;;;18.88;4.80;;;6.60;99.90;;;;;;5058583;28;20109;-84
2022/02/12 12:37:24;;;;;;;14.52;3.90;;;6.60;99.90;;;;;;5058428;28;20062;-88
2022/02/12 12:39:50;;;;;;;16.77;4.10;;;6.60;99.90;;;;;;5056828;28;20048;-87
2022/02/12 12:42:21;;;;;;;14.05;4.32;;;6.60;99.90;;;;;;5043563;28;20046;-87
2022/02/12 12:45:11;;;;;;;13.00;4.55;;;6.70;99.90;;;;;;5055492;28;20069;-88
2022/02/12 12:47:50;;;;;;;13.02;4.90;;;6.70;99.90;;;;;;5069412;28;20044;-87
2022/02/12 12:50:17;;;;;;;16.73;4.72;;;6.80;99.90;;;;;;5061250;28;20051;-85
2022/02/12 12:52:43;;;;;;;21.00;4.85;;;6.80;99.90;;;;;;5055850;28;20105;-88